createdAt,value
2018-08-07T00:02:00.000Z,25.0
2018-08-07T00:07:00.000Z,24.9
2018-08-07T00:12:00.000Z,24.8
2018-08-07T00:17:00.000Z,24.7
2018-08-07T00:22:00.000Z,24.6
2018-08-07T00:27:00.000Z,24.5
2018-08-07T00:32:00.000Z,24.4
2018-08-07T00:37:00.000Z,24.4
2018-08-07T00:42:00.000Z,24.3
2018-08-07T00:47:00.000Z,24.3
2018-08-07T00:52:00.000Z,24.2
2018-08-07T00:57:00.000Z,24.2
2018-08-07T01:02:00.000Z,24.0
2018-08-07T01:07:00.000Z,23.9
2018-08-07T01:12:00.000Z,23.8
2018-08-07T01:17:00.000Z,23.7
2018-08-07T01:22:00.000Z,23.7
2018-08-07T01:27:00.000Z,23.6
2018-08-07T01:32:00.000Z,23.6
2018-08-07T01:37:00.000Z,23.5
2018-08-07T01:42:00.000Z,23.5
2018-08-07T01:47:00.000Z,23.4
2018-08-07T01:52:00.000Z,23.4
2018-08-07T01:57:00.000Z,23.3
2018-08-07T02:02:00.000Z,23.3
2018-08-07T02:07:00.000Z,23.3
2018-08-07T02:12:00.000Z,23.2
2018-08-07T02:17:00.000Z,23.2
2018-08-07T02:22:00.000Z,23.2
2018-08-07T02:27:00.000Z,23.2
2018-08-07T02:32:00.000Z,23.2
2018-08-07T02:37:00.000Z,23.2
2018-08-07T02:42:00.000Z,23.2
2018-08-07T02:47:00.000Z,23.1
2018-08-07T02:52:00.000Z,23.1
2018-08-07T02:57:00.000Z,23.1
2018-08-07T03:02:00.000Z,23.0
2018-08-07T03:07:00.000Z,23.0
2018-08-07T03:12:00.000Z,23.0
2018-08-07T03:17:00.000Z,23.0
2018-08-07T03:22:00.000Z,23.0
2018-08-07T03:27:00.000Z,23.0
2018-08-07T03:32:00.000Z,23.1
2018-08-07T03:37:00.000Z,23.1
2018-08-07T03:42:00.000Z,23.1
2018-08-07T03:47:00.000Z,23.1
2018-08-07T03:52:00.000Z,23.1
2018-08-07T03:57:00.000Z,23.2
2018-08-07T04:02:00.000Z,23.2
2018-08-07T04:08:00.000Z,23.3
2018-08-07T04:13:00.000Z,23.3
2018-08-07T04:18:00.000Z,23.3
2018-08-07T04:23:00.000Z,23.3
2018-08-07T04:28:00.000Z,23.3
2018-08-07T04:33:00.000Z,23.3
2018-08-07T04:38:00.000Z,23.3
2018-08-07T04:43:00.000Z,23.4
2018-08-07T04:48:00.000Z,23.3
2018-08-07T04:53:00.000Z,23.3
2018-08-07T04:58:00.000Z,23.3
2018-08-07T05:03:00.000Z,23.2
2018-08-07T05:08:00.000Z,23.2
2018-08-07T05:13:00.000Z,23.2
2018-08-07T05:18:00.000Z,23.3
2018-08-07T05:23:00.000Z,23.3
2018-08-07T05:28:00.000Z,23.4
2018-08-07T05:33:00.000Z,23.5
2018-08-07T05:38:00.000Z,23.5
2018-08-07T05:43:00.000Z,23.6
2018-08-07T05:48:00.000Z,23.7
2018-08-07T05:53:00.000Z,23.8
2018-08-07T05:58:00.000Z,23.9
2018-08-07T06:03:00.000Z,24.0
2018-08-07T06:08:00.000Z,24.0
2018-08-07T06:13:00.000Z,24.2
2018-08-07T06:18:00.000Z,24.2
2018-08-07T06:23:00.000Z,24.3
2018-08-07T06:28:00.000Z,24.4
2018-08-07T06:33:00.000Z,24.4
2018-08-07T06:38:00.000Z,24.4
2018-08-07T06:43:00.000Z,24.5
2018-08-07T06:48:00.000Z,24.6
2018-08-07T06:53:00.000Z,24.7
2018-08-07T06:58:00.000Z,24.7
2018-08-07T07:03:00.000Z,24.9
2018-08-07T07:08:00.000Z,25.0
2018-08-07T07:13:00.000Z,25.1
2018-08-07T07:18:00.000Z,25.4
2018-08-07T07:23:00.000Z,25.7
2018-08-07T07:28:00.000Z,26.3
2018-08-07T07:33:00.000Z,26.9
2018-08-07T07:38:00.000Z,27.4
2018-08-07T07:43:00.000Z,27.9
2018-08-07T07:48:00.000Z,28.3
2018-08-07T07:53:00.000Z,28.7
2018-08-07T07:58:00.000Z,29.0
2018-08-07T08:03:00.000Z,29.5
2018-08-07T08:08:00.000Z,29.9
2018-08-07T08:13:00.000Z,30.3
2018-08-07T08:18:00.000Z,30.6
2018-08-07T08:23:00.000Z,30.8
2018-08-07T08:28:00.000Z,31.2
2018-08-07T08:33:00.000Z,31.6
2018-08-07T08:38:00.000Z,32.0
2018-08-07T08:43:00.000Z,32.2
2018-08-07T08:48:00.000Z,32.6
2018-08-07T08:53:00.000Z,32.9
2018-08-07T08:58:00.000Z,33.1
2018-08-07T09:03:00.000Z,33.3
2018-08-07T09:08:00.000Z,33.3
2018-08-07T09:13:00.000Z,33.4
2018-08-07T09:18:00.000Z,33.4
2018-08-07T09:23:00.000Z,33.5
2018-08-07T09:29:00.000Z,33.7
2018-08-07T09:34:00.000Z,33.8
2018-08-07T09:39:00.000Z,33.9
2018-08-07T09:44:00.000Z,34.0
2018-08-07T09:49:00.000Z,34.2
2018-08-07T09:54:00.000Z,34.6
2018-08-07T09:59:00.000Z,34.7
2018-08-07T10:04:00.000Z,34.6
2018-08-07T10:09:00.000Z,34.6
2018-08-07T10:14:00.000Z,34.4
2018-08-07T10:19:00.000Z,34.3
2018-08-07T10:24:00.000Z,34.4
2018-08-07T10:29:00.000Z,34.5
2018-08-07T10:34:00.000Z,34.6
2018-08-07T10:39:00.000Z,34.7
2018-08-07T10:44:00.000Z,34.8
2018-08-07T10:49:00.000Z,34.7
2018-08-07T10:54:00.000Z,34.7
2018-08-07T10:59:00.000Z,34.6
2018-08-07T11:04:00.000Z,34.6
2018-08-07T11:09:00.000Z,34.5
2018-08-07T11:14:00.000Z,34.4
2018-08-07T11:19:00.000Z,34.2
2018-08-07T11:24:00.000Z,34.1
2018-08-07T11:29:00.000Z,34.0
2018-08-07T11:34:00.000Z,33.9
2018-08-07T11:39:00.000Z,33.9
2018-08-07T11:44:00.000Z,33.6
2018-08-07T11:49:00.000Z,33.5
2018-08-07T11:54:00.000Z,33.5
2018-08-07T11:59:00.000Z,33.5
2018-08-07T12:04:00.000Z,33.6
2018-08-07T12:09:00.000Z,33.4
2018-08-07T12:14:00.000Z,33.5
2018-08-07T12:19:00.000Z,33.7
2018-08-07T12:24:00.000Z,33.9
2018-08-07T12:29:00.000Z,34.0
2018-08-07T12:34:00.000Z,34.2
2018-08-07T12:39:00.000Z,34.5
2018-08-07T12:44:00.000Z,34.7
2018-08-07T12:49:00.000Z,34.9
2018-08-07T12:54:00.000Z,34.7
2018-08-07T12:59:00.000Z,34.4
2018-08-07T13:04:00.000Z,33.8
2018-08-07T13:09:00.000Z,33.3
2018-08-07T13:14:00.000Z,32.9
2018-08-07T13:19:00.000Z,32.6
2018-08-07T13:24:00.000Z,32.4
2018-08-07T13:29:00.000Z,32.2
2018-08-07T13:34:00.000Z,32.1
2018-08-07T13:39:00.000Z,32.0
2018-08-07T13:44:00.000Z,31.9
2018-08-07T13:49:00.000Z,31.7
2018-08-07T13:54:00.000Z,31.5
2018-08-07T13:59:00.000Z,31.4
2018-08-07T14:04:00.000Z,31.2
2018-08-07T14:09:00.000Z,31.1
2018-08-07T14:14:00.000Z,31.0
2018-08-07T14:19:00.000Z,30.9
2018-08-07T14:24:00.000Z,30.8
2018-08-07T14:29:00.000Z,30.7
2018-08-07T14:34:00.000Z,30.6
2018-08-07T14:39:00.000Z,30.4
2018-08-07T14:44:00.000Z,30.3
2018-08-07T14:49:00.000Z,30.2
2018-08-07T14:54:00.000Z,30.2
2018-08-07T14:59:00.000Z,30.1
2018-08-07T15:04:00.000Z,30.0
2018-08-07T15:09:00.000Z,29.9
2018-08-07T15:14:00.000Z,29.9
2018-08-07T15:19:00.000Z,29.8
2018-08-07T15:24:00.000Z,29.8
2018-08-07T15:30:00.000Z,29.7
2018-08-07T15:35:00.000Z,29.6
2018-08-07T15:40:00.000Z,29.6
2018-08-07T15:45:00.000Z,29.4
2018-08-07T15:50:00.000Z,29.1
2018-08-07T15:55:00.000Z,28.8
2018-08-07T16:00:00.000Z,28.6
2018-08-07T16:05:00.000Z,28.3
2018-08-07T16:10:00.000Z,28.1
2018-08-07T16:15:00.000Z,28.0
2018-08-07T16:20:00.000Z,27.9
2018-08-07T16:25:00.000Z,27.8
2018-08-07T16:30:00.000Z,27.7
2018-08-07T16:35:00.000Z,27.7
2018-08-07T16:40:00.000Z,27.6
2018-08-07T16:45:00.000Z,27.5
2018-08-07T16:50:00.000Z,27.5
2018-08-07T16:55:00.000Z,27.4
2018-08-07T17:00:00.000Z,27.2
2018-08-07T17:05:00.000Z,27.0
2018-08-07T17:10:00.000Z,26.7
2018-08-07T17:15:00.000Z,26.5
2018-08-07T17:20:00.000Z,26.3
2018-08-07T17:25:00.000Z,26.1
2018-08-07T17:30:00.000Z,26.0
2018-08-07T17:35:00.000Z,25.9
2018-08-07T17:40:00.000Z,25.9
2018-08-07T17:45:00.000Z,25.8
2018-08-07T17:50:00.000Z,25.8
2018-08-07T17:55:00.000Z,25.8
2018-08-07T18:00:00.000Z,25.8
2018-08-07T18:05:00.000Z,25.8
2018-08-07T18:10:00.000Z,25.8
2018-08-07T18:15:00.000Z,25.8
2018-08-07T18:20:00.000Z,25.7
2018-08-07T18:25:00.000Z,25.6
2018-08-07T18:30:00.000Z,25.6
2018-08-07T18:35:00.000Z,25.5
2018-08-07T18:40:00.000Z,25.5
2018-08-07T18:45:00.000Z,25.4
2018-08-07T18:50:00.000Z,25.3
2018-08-07T18:55:00.000Z,25.2
2018-08-07T19:00:00.000Z,25.1
2018-08-07T19:05:00.000Z,25.0
2018-08-07T19:10:00.000Z,24.9
2018-08-07T19:15:00.000Z,24.8
2018-08-07T19:20:00.000Z,24.7
2018-08-07T19:25:00.000Z,24.4
2018-08-07T19:30:00.000Z,24.2
2018-08-07T19:35:00.000Z,24.0
2018-08-07T19:40:00.000Z,23.8
2018-08-07T19:45:00.000Z,23.7
2018-08-07T19:50:00.000Z,23.6
2018-08-07T19:55:00.000Z,23.5
2018-08-07T20:00:00.000Z,23.4
2018-08-07T20:05:00.000Z,23.4
2018-08-07T20:10:00.000Z,23.3
2018-08-07T20:15:00.000Z,23.2
2018-08-07T20:20:00.000Z,23.1
2018-08-07T20:25:00.000Z,23.0
2018-08-07T20:30:00.000Z,23.0
2018-08-07T20:35:00.000Z,22.9
2018-08-07T20:40:00.000Z,22.9
2018-08-07T20:45:00.000Z,22.9
2018-08-07T20:50:00.000Z,23.0
2018-08-07T20:55:00.000Z,23.0
2018-08-07T21:00:00.000Z,22.9
2018-08-07T21:05:00.000Z,22.9
2018-08-07T21:10:00.000Z,22.9
2018-08-07T21:15:00.000Z,22.9
2018-08-07T21:20:00.000Z,22.9
2018-08-07T21:26:00.000Z,22.9
2018-08-07T21:31:00.000Z,22.9
2018-08-07T21:36:00.000Z,22.9
2018-08-07T21:41:00.000Z,22.9
2018-08-07T21:46:00.000Z,22.9
2018-08-07T21:51:00.000Z,23.0
2018-08-07T21:56:00.000Z,23.0
2018-08-07T22:01:00.000Z,23.0
2018-08-07T22:06:00.000Z,23.0
2018-08-07T22:11:00.000Z,23.0
2018-08-07T22:16:00.000Z,23.0
2018-08-07T22:21:00.000Z,23.0
2018-08-07T22:26:00.000Z,23.0
2018-08-07T22:31:00.000Z,23.1
2018-08-07T22:36:00.000Z,23.1
2018-08-07T22:41:00.000Z,23.1
2018-08-07T22:46:00.000Z,23.1
2018-08-07T22:51:00.000Z,23.0
2018-08-07T22:56:00.000Z,23.0
2018-08-07T23:01:00.000Z,23.0
2018-08-07T23:06:00.000Z,23.0
2018-08-07T23:11:00.000Z,23.0
2018-08-07T23:16:00.000Z,23.0
2018-08-07T23:21:00.000Z,23.0
2018-08-07T23:26:00.000Z,22.9
2018-08-07T23:31:00.000Z,22.8
2018-08-07T23:36:00.000Z,22.8
2018-08-07T23:41:00.000Z,22.7
2018-08-07T23:46:00.000Z,22.6
2018-08-07T23:51:00.000Z,22.5
2018-08-07T23:56:00.000Z,22.5
